Time;durP1;ratioP1;P1;durP2;ratioP2;P2;SDS_P1;SDS_P2;PMS_P1;PMS_P2;Temp;Humidity;BMP_temperature;BMP_pressure;BME280_temperature;BME280_humidity;BME280_pressure;Samples;Min_cycle;Max_cycle;Signal;HPM_P1;HPM_P2
2022/09/13 00:00:36;;;;;;;3.10;2.90;;;24.40;44.80;;;;;;6208111;23;20732;-61
2022/09/13 00:03:02;;;;;;;3.27;3.07;;;24.40;44.80;;;;;;6208973;23;20205;-62
2022/09/13 00:05:29;;;;;;;3.27;3.10;;;24.40;44.70;;;;;;6205998;23;20431;-60
2022/09/13 00:07:55;;;;;;;3.50;3.30;;;24.40;44.80;;;;;;6206596;23;20731;-67
2022/09/13 00:10:21;;;;;;;3.43;3.23;;;24.40;44.80;;;;;;6207572;23;20420;-61
2022/09/13 00:12:47;;;;;;;3.50;3.30;;;24.40;44.80;;;;;;6206115;23;20430;-60
2022/09/13 00:15:14;;;;;;;3.00;2.90;;;24.40;44.80;;;;;;6205717;23;20952;-61
2022/09/13 00:17:39;;;;;;;3.50;3.30;;;24.40;44.70;;;;;;6208184;23;20404;-62
2022/09/13 00:20:05;;;;;;;3.27;3.07;;;24.40;44.80;;;;;;6206370;23;20534;-62
2022/09/13 00:22:31;;;;;;;3.50;3.30;;;24.40;44.80;;;;;;6209658;23;20200;-62
2022/09/13 00:24:57;;;;;;;3.23;3.03;;;24.40;44.80;;;;;;6206061;23;20427;-61
2022/09/13 00:27:22;;;;;;;3.03;2.93;;;24.40;44.80;;;;;;6207074;23;20202;-61
2022/09/13 00:29:48;;;;;;;3.60;3.40;;;24.40;44.80;;;;;;6206044;23;20628;-62
2022/09/13 00:32:14;;;;;;;3.30;3.10;;;24.40;44.80;;;;;;6206612;23;20260;-64
2022/09/13 00:34:39;;;;;;;3.33;3.13;;;24.40;44.80;;;;;;6207189;23;20529;-61
2022/09/13 00:37:05;;;;;;;3.37;3.17;;;24.40;44.80;;;;;;6206401;23;20194;-62
2022/09/13 00:39:32;;;;;;;3.07;2.97;;;24.40;44.80;;;;;;6206048;23;20941;-60
2022/09/13 00:41:57;;;;;;;3.77;3.57;;;24.40;44.80;;;;;;6205851;23;20198;-60
2022/09/13 00:44:48;;;;;;;3.03;2.83;;;24.40;44.80;;;;;;6205603;23;20706;-60
2022/09/13 00:47:18;;;;;;;3.17;2.97;;;24.40;44.70;;;;;;6200352;23;20186;-60
2022/09/13 00:49:45;;;;;;;3.17;2.97;;;24.40;44.80;;;;;;6197938;23;20444;-61
2022/09/13 00:52:15;;;;;;;3.13;2.93;;;24.40;44.80;;;;;;6176804;23;20420;-61
2022/09/13 00:54:50;;;;;;;3.10;2.90;;;24.40;44.70;;;;;;6175994;23;20420;-60
2022/09/13 00:57:18;;;;;;;3.23;3.03;;;24.40;44.70;;;;;;6177545;23;20419;-60
2022/09/13 01:00:00;;;;;;;3.23;3.03;;;24.40;44.80;;;;;;6177463;23;20788;-60
2022/09/13 01:02:27;;;;;;;3.70;3.50;;;24.40;44.80;;;;;;6175552;23;20721;-61
2022/09/13 01:04:53;;;;;;;3.00;2.83;;;24.40;44.70;;;;;;6175077;23;20428;-62
2022/09/13 01:07:19;;;;;;;3.27;3.07;;;24.40;44.80;;;;;;6176905;23;20899;-63
2022/09/13 01:09:47;;;;;;;3.50;3.30;;;24.40;44.70;;;;;;6177174;23;20295;-60
2022/09/13 01:12:39;;;;;;;2.73;2.63;;;24.40;44.70;;;;;;6176477;23;20186;-60
2022/09/13 01:15:06;;;;;;;3.20;3.00;;;24.40;44.70;;;;;;6174888;23;20994;-63
2022/09/13 01:17:33;;;;;;;2.83;2.63;;;24.40;44.70;;;;;;6177063;23;20412;-61
2022/09/13 01:20:00;;;;;;;2.77;2.67;;;24.40;44.70;;;;;;6206333;23;20497;-62
2022/09/13 01:23:13;;;;;;;2.93;2.80;;;24.40;44.70;;;;;;6205570;23;20781;-60
2022/09/13 01:25:57;;;;;;;3.33;3.13;;;24.40;44.70;;;;;;6125434;23;20439;-62
2022/09/13 01:28:47;;;;;;;3.23;3.03;;;24.40;44.70;;;;;;6205027;23;20427;-62
2022/09/13 01:31:39;;;;;;;2.97;2.87;;;24.40;44.80;;;;;;6190276;23;20425;-61
2022/09/13 01:34:30;;;;;;;3.03;2.90;;;24.40;44.70;;;;;;6170073;23;20504;-67
2022/09/13 01:37:20;;;;;;;2.80;2.70;;;24.40;44.70;;;;;;6205165;23;20411;-63
2022/09/13 01:39:58;;;;;;;3.07;2.90;;;24.40;44.80;;;;;;6194637;23;20419;-66
2022/09/13 01:42:46;;;;;;;3.30;3.10;;;24.40;44.80;;;;;;6175378;23;20467;-61
2022/09/13 01:45:54;;;;;;;3.43;3.23;;;24.40;44.70;;;;;;6157039;23;20494;-62
2022/09/13 01:48:22;;;;;;;3.00;2.80;;;24.40;44.70;;;;;;6203257;23;21028;-64
2022/09/13 01:51:12;;;;;;;3.30;3.10;;;24.40;44.70;;;;;;6206058;23;20423;-60
2022/09/13 01:53:55;;;;;;;2.93;2.80;;;24.40;44.70;;;;;;6204589;23;20447;-61
2022/09/13 01:56:53;;;;;;;3.30;3.10;;;24.40;44.70;;;;;;6204630;23;20435;-62
2022/09/13 01:59:34;;;;;;;2.57;2.47;;;24.40;44.70;;;;;;6174308;23;20752;-63
2022/09/13 02:02:06;;;;;;;3.20;3.00;;;24.30;44.70;;;;;;6174783;23;20451;-60
2022/09/13 02:04:39;;;;;;;3.07;2.60;;;24.40;45.60;;;;;;6174756;23;20479;-62
2022/09/13 02:07:13;;;;;;;2.90;2.70;;;24.40;44.80;;;;;;6173308;23;20459;-64
2022/09/13 02:09:43;;;;;;;2.73;2.63;;;24.40;44.80;;;;;;6175343;23;20412;-62
2022/09/13 02:12:20;;;;;;;2.77;2.60;;;24.40;44.80;;;;;;6173930;23;20511;-62
2022/09/13 02:14:57;;;;;;;2.33;2.23;;;24.40;44.70;;;;;;6173757;23;20432;-60
2022/09/13 02:17:27;;;;;;;2.87;2.67;;;24.40;44.80;;;;;;6174914;23;20439;-65
2022/09/13 02:20:02;;;;;;;3.50;3.30;;;24.40;44.70;;;;;;6175150;23;20439;-60
2022/09/13 02:22:36;;;;;;;3.00;2.90;;;24.40;44.80;;;;;;6171525;23;21090;-62
2022/09/13 02:25:08;;;;;;;2.93;2.83;;;24.40;44.80;;;;;;6174931;23;20888;-60
2022/09/13 02:27:36;;;;;;;2.40;2.30;;;24.40;44.70;;;;;;6173492;23;20471;-60
2022/09/13 02:30:07;;;;;;;2.63;2.43;;;24.40;44.80;;;;;;6176445;23;20442;-63
2022/09/13 02:32:55;;;;;;;3.10;2.90;;;24.40;44.80;;;;;;6174426;23;20442;-63
2022/09/13 02:35:32;;;;;;;3.10;2.90;;;24.40;44.70;;;;;;6174382;23;21132;-61
2022/09/13 02:38:04;;;;;;;2.90;2.70;;;24.40;44.70;;;;;;6174969;23;20415;-60
2022/09/13 02:40:39;;;;;;;2.93;2.83;;;24.30;44.70;;;;;;6174862;23;21221;-63
2022/09/13 02:43:18;;;;;;;2.90;2.80;;;24.40;44.80;;;;;;6197569;23;20415;-65
2022/09/13 02:46:12;;;;;;;2.60;2.50;;;24.40;44.70;;;;;;6175026;23;20437;-61
2022/09/13 02:48:55;;;;;;;2.60;2.40;;;24.40;44.70;;;;;;6173257;23;20511;-62
2022/09/13 02:51:43;;;;;;;3.10;2.90;;;24.40;44.70;;;;;;6175888;23;20423;-60
2022/09/13 02:54:22;;;;;;;3.17;2.97;;;24.30;44.60;;;;;;6174630;23;20805;-60
2022/09/13 02:56:56;;;;;;;2.70;2.60;;;24.30;44.70;;;;;;6184369;23;20424;-62
2022/09/13 02:59:23;;;;;;;2.57;2.37;;;24.40;44.80;;;;;;6186900;23;20718;-60
2022/09/13 03:01:58;;;;;;;2.83;2.63;;;24.30;44.70;;;;;;6170851;23;20446;-62
2022/09/13 03:04:24;;;;;;;2.87;2.70;;;24.30;44.70;;;;;;6172198;23;20428;-61
2022/09/13 03:06:49;;;;;;;2.47;2.37;;;24.30;44.70;;;;;;6173250;23;20428;-61
2022/09/13 03:09:16;;;;;;;2.60;2.50;;;24.30;44.70;;;;;;6173627;23;20194;-61
2022/09/13 03:12:16;;;;;;;3.50;3.30;;;24.40;44.80;;;;;;6174578;23;20230;-62
2022/09/13 03:15:21;;;;;;;2.57;2.47;;;24.30;44.70;;;;;;6171740;23;20429;-60
2022/09/13 03:18:29;;;;;;;3.03;2.90;;;24.30;44.70;;;;;;6177240;23;20418;-60
2022/09/13 03:21:07;;;;;;;3.07;2.87;;;24.30;44.70;;;;;;6200018;23;20450;-62
2022/09/13 03:23:59;;;;;;;2.67;2.57;;;24.30;44.70;;;;;;6195919;23;20530;-62
2022/09/13 03:26:37;;;;;;;2.60;2.50;;;24.30;44.70;;;;;;6179636;23;20528;-62
2022/09/13 03:29:32;;;;;;;4.10;2.87;;;24.30;44.80;;;;;;6195713;23;20431;-60
2022/09/13 03:32:23;;;;;;;2.77;2.57;;;24.30;44.70;;;;;;6172185;23;20420;-60
2022/09/13 03:34:58;;;;;;;2.83;2.73;;;24.30;44.70;;;;;;6179983;23;20723;-65
2022/09/13 03:37:44;;;;;;;2.50;2.40;;;24.30;44.70;;;;;;6174299;23;20416;-62
2022/09/13 03:40:13;;;;;;;2.37;2.23;;;24.30;44.70;;;;;;6186498;23;20429;-60
2022/09/13 03:42:54;;;;;;;3.17;2.97;;;24.30;44.70;;;;;;6204005;23;20526;-60
2022/09/13 03:45:25;;;;;;;2.83;2.73;;;24.30;44.70;;;;;;6195811;23;20772;-62
2022/09/13 03:47:51;;;;;;;3.80;2.83;;;24.30;44.80;;;;;;6196354;23;20511;-61
2022/09/13 03:50:20;;;;;;;2.80;2.60;;;24.30;44.70;;;;;;6203160;23;20466;-60
2022/09/13 03:52:49;;;;;;;3.10;2.90;;;24.30;44.70;;;;;;6203878;23;20570;-61
2022/09/13 03:55:20;;;;;;;2.93;2.77;;;24.40;44.80;;;;;;6202330;23;20466;-63
2022/09/13 03:57:46;;;;;;;2.30;2.20;;;24.30;44.70;;;;;;6204240;23;20407;-67
2022/09/13 04:00:13;;;;;;;3.03;2.83;;;24.30;44.70;;;;;;6202400;23;20415;-63
2022/09/13 04:02:39;;;;;;;3.00;2.90;;;24.40;44.80;;;;;;6205165;23;20468;-63
2022/09/13 04:05:05;;;;;;;2.90;2.70;;;24.40;44.80;;;;;;6201538;23;20881;-61
2022/09/13 04:07:31;;;;;;;2.63;2.43;;;24.30;44.70;;;;;;6202740;23;20214;-63
2022/09/13 04:09:56;;;;;;;2.70;2.50;;;24.40;44.80;;;;;;6201795;23;20439;-60
2022/09/13 04:12:22;;;;;;;2.30;2.20;;;24.40;44.80;;;;;;6203822;23;20571;-60
2022/09/13 04:14:48;;;;;;;3.10;2.90;;;24.40;44.70;;;;;;6202859;23;20660;-64
2022/09/13 04:17:13;;;;;;;3.27;3.07;;;24.40;44.80;;;;;;6201493;23;20224;-62
2022/09/13 04:19:40;;;;;;;2.77;2.67;;;24.40;44.80;;;;;;6203169;23;20242;-65
2022/09/13 04:22:05;;;;;;;2.43;2.33;;;24.40;44.70;;;;;;6204457;23;20224;-63
2022/09/13 04:24:32;;;;;;;4.00;2.40;;;24.40;44.80;;;;;;6204784;23;21057;-65
2022/09/13 04:26:57;;;;;;;2.33;2.23;;;24.40;44.80;;;;;;6198381;23;20282;-64
2022/09/13 04:29:25;;;;;;;2.50;2.40;;;24.40;44.70;;;;;;6193963;23;20429;-63
2022/09/13 04:31:52;;;;;;;2.40;2.30;;;24.40;44.70;;;;;;6174474;23;20207;-63
2022/09/13 04:34:19;;;;;;;41.63;4.43;;;24.40;45.50;;;;;;6187752;23;20442;-62
2022/09/13 04:36:46;;;;;;;2.30;2.10;;;24.40;44.30;;;;;;6202361;23;20526;-59
2022/09/13 04:39:15;;;;;;;2.47;2.37;;;24.50;44.30;;;;;;6204509;23;20415;-62
2022/09/13 04:41:46;;;;;;;2.30;2.10;;;24.50;44.30;;;;;;6203604;23;20418;-63
2022/09/13 04:44:11;;;;;;;2.00;1.90;;;24.50;44.30;;;;;;6192056;23;21160;-61
2022/09/13 04:46:37;;;;;;;2.37;2.27;;;24.50;44.30;;;;;;6192697;23;20507;-65
2022/09/13 04:49:03;;;;;;;2.30;2.20;;;24.50;44.30;;;;;;6175515;23;20194;-61
2022/09/13 04:51:28;;;;;;;2.20;2.10;;;24.50;44.40;;;;;;6175271;23;20256;-60
2022/09/13 04:53:55;;;;;;;2.53;2.43;;;24.50;44.40;;;;;;6173788;23;20194;-61
2022/09/13 04:56:22;;;;;;;2.40;2.30;;;24.50;44.40;;;;;;6173589;23;20286;-61
2022/09/13 04:58:52;;;;;;;2.23;2.13;;;24.50;44.40;;;;;;6175135;23;20471;-60
2022/09/13 05:01:18;;;;;;;2.30;2.20;;;24.50;44.40;;;;;;6173909;23;20416;-61
2022/09/13 05:03:44;;;;;;;2.47;2.27;;;24.50;44.50;;;;;;6175886;23;20725;-61
2022/09/13 05:06:12;;;;;;;2.60;2.50;;;24.50;44.50;;;;;;6175452;23;20647;-62
2022/09/13 05:08:39;;;;;;;2.40;2.30;;;24.50;44.50;;;;;;6175540;23;20199;-61
2022/09/13 05:11:05;;;;;;;2.27;2.17;;;24.50;44.50;;;;;;6175617;23;21171;-62
2022/09/13 05:13:31;;;;;;;2.67;2.57;;;24.50;44.50;;;;;;6176348;23;20791;-60
2022/09/13 05:16:02;;;;;;;2.07;1.97;;;24.50;44.50;;;;;;6169878;23;20443;-61
2022/09/13 05:18:29;;;;;;;2.13;2.03;;;24.50;44.50;;;;;;6172961;23;20190;-62
2022/09/13 05:20:56;;;;;;;2.20;2.10;;;24.50;44.50;;;;;;6174880;23;20416;-59
2022/09/13 05:23:23;;;;;;;2.43;2.33;;;24.50;44.50;;;;;;6166971;23;23675;-62
2022/09/13 05:26:00;;;;;;;2.27;2.17;;;24.50;44.60;;;;;;6164148;23;20823;-62
2022/09/13 05:28:30;;;;;;;9.53;2.63;;;24.50;44.60;;;;;;6175308;23;20424;-60
2022/09/13 05:31:15;;;;;;;2.80;2.17;;;24.50;44.60;;;;;;6172111;23;20783;-65
2022/09/13 05:33:41;;;;;;;2.20;2.10;;;24.50;44.50;;;;;;6187135;23;20943;-64
2022/09/13 05:36:07;;;;;;;2.13;2.03;;;24.50;44.60;;;;;;6174587;23;20730;-60
2022/09/13 05:38:33;;;;;;;2.50;2.40;;;24.50;44.60;;;;;;6177729;23;20419;-64
2022/09/13 05:41:01;;;;;;;2.07;1.97;;;24.50;44.60;;;;;;6199162;23;20232;-60
2022/09/13 05:43:29;;;;;;;2.17;1.93;;;24.50;44.60;;;;;;6205962;23;20484;-60
2022/09/13 05:46:09;;;;;;;2.63;2.53;;;24.50;44.60;;;;;;6205039;23;20427;-60
2022/09/13 05:48:35;;;;;;;2.30;2.20;;;24.50;44.60;;;;;;6174327;23;20427;-60
2022/09/13 05:51:04;;;;;;;2.10;1.90;;;24.50;44.60;;;;;;6175060;23;20408;-62
2022/09/13 05:53:30;;;;;;;2.03;1.93;;;24.50;44.70;;;;;;6175226;23;20261;-60
2022/09/13 05:55:56;;;;;;;2.80;2.60;;;24.50;44.60;;;;;;6180761;23;20448;-60
2022/09/13 05:58:22;;;;;;;2.40;2.20;;;24.50;44.60;;;;;;6196906;23;21199;-65
2022/09/13 06:00:55;;;;;;;2.00;1.80;;;24.50;44.60;;;;;;6203197;23;20193;-60
2022/09/13 06:03:22;;;;;;;2.50;2.30;;;24.50;44.60;;;;;;6173790;23;20223;-61
2022/09/13 06:05:48;;;;;;;2.53;2.00;;;24.50;44.70;;;;;;6200611;23;20733;-63
2022/09/13 06:08:13;;;;;;;2.40;2.20;;;24.50;44.60;;;;;;6203689;23;20458;-60
2022/09/13 06:10:39;;;;;;;2.77;2.57;;;24.50;44.70;;;;;;6201414;23;20198;-62
2022/09/13 06:13:05;;;;;;;2.37;2.17;;;24.50;44.70;;;;;;6203436;23;20197;-67
2022/09/13 06:15:30;;;;;;;2.10;2.00;;;24.50;44.60;;;;;;6204165;23;20214;-66
2022/09/13 06:17:56;;;;;;;2.37;2.17;;;24.50;44.70;;;;;;6200711;23;20221;-62
2022/09/13 06:20:22;;;;;;;2.30;2.10;;;24.50;44.70;;;;;;6203046;23;20524;-63
2022/09/13 06:22:48;;;;;;;2.27;2.07;;;24.50;44.70;;;;;;6202767;23;20201;-63
2022/09/13 06:25:14;;;;;;;2.63;1.93;;;24.50;44.70;;;;;;6204007;23;20210;-66
2022/09/13 06:27:39;;;;;;;2.43;2.23;;;24.50;44.70;;;;;;6202914;23;20949;-63
2022/09/13 06:30:07;;;;;;;2.17;2.00;;;24.50;44.70;;;;;;6201933;23;20252;-62
2022/09/13 06:32:36;;;;;;;2.20;2.10;;;24.50;44.70;;;;;;6201776;23;20703;-62
2022/09/13 06:35:01;;;;;;;2.77;2.57;;;24.50;44.60;;;;;;6200234;23;20451;-62
2022/09/13 06:37:27;;;;;;;2.27;2.10;;;24.50;44.70;;;;;;6198474;23;20407;-62
2022/09/13 06:39:52;;;;;;;2.13;2.03;;;24.50;44.70;;;;;;6197574;23;20567;-64
2022/09/13 06:42:18;;;;;;;2.27;2.10;;;24.50;44.70;;;;;;6199571;23;20558;-61
2022/09/13 06:44:44;;;;;;;2.30;2.20;;;24.50;44.70;;;;;;6200797;23;20648;-65
2022/09/13 06:47:12;;;;;;;2.10;2.00;;;24.50;44.70;;;;;;6200483;23;20193;-63
2022/09/13 06:49:38;;;;;;;2.53;2.33;;;24.50;44.70;;;;;;6198824;23;20495;-63
2022/09/13 06:52:04;;;;;;;2.40;2.30;;;24.50;44.70;;;;;;6201158;23;20419;-63
2022/09/13 06:54:29;;;;;;;2.30;2.20;;;24.50;44.70;;;;;;6200608;23;21061;-62
2022/09/13 06:56:55;;;;;;;2.37;2.17;;;24.50;44.70;;;;;;6198252;23;20316;-61
2022/09/13 06:59:20;;;;;;;2.60;2.30;;;24.50;44.70;;;;;;6200111;23;20202;-63
2022/09/13 07:01:46;;;;;;;2.17;2.07;;;24.50;44.70;;;;;;6198208;23;20194;-65
2022/09/13 07:04:14;;;;;;;2.00;1.90;;;24.50;44.70;;;;;;6201563;23;20701;-61
2022/09/13 07:06:46;;;;;;;2.10;2.00;;;24.50;44.60;;;;;;6202192;23;20518;-63
2022/09/13 07:09:16;;;;;;;1.90;1.80;;;24.50;44.60;;;;;;6202719;23;20411;-63
2022/09/13 07:11:42;;;;;;;2.43;2.23;;;24.50;44.70;;;;;;6200010;23;20419;-62
2022/09/13 07:14:13;;;;;;;2.20;2.10;;;24.50;44.60;;;;;;6201648;23;20526;-62
2022/09/13 07:16:39;;;;;;;2.30;2.20;;;24.50;44.80;;;;;;6200592;23;20509;-63
2022/09/13 07:19:10;;;;;;;2.10;2.00;;;24.50;44.70;;;;;;6203193;23;20898;-62
2022/09/13 07:21:36;;;;;;;2.40;2.20;;;24.50;44.70;;;;;;6203201;23;20187;-61
2022/09/13 07:24:02;;;;;;;1.80;1.70;;;24.50;44.70;;;;;;6204650;23;20440;-61
2022/09/13 07:26:27;;;;;;;2.10;2.00;;;24.50;44.70;;;;;;6201318;23;20198;-61
2022/09/13 07:28:56;;;;;;;1.90;1.80;;;24.50;44.70;;;;;;6201215;23;20502;-60
2022/09/13 07:31:24;;;;;;;1.60;1.50;;;24.50;44.70;;;;;;6201944;23;20268;-60
2022/09/13 07:33:58;;;;;;;2.10;2.00;;;24.50;44.70;;;;;;6200987;23;20914;-64
2022/09/13 07:36:25;;;;;;;2.00;1.90;;;24.50;44.70;;;;;;6201551;23;20442;-62
2022/09/13 07:38:51;;;;;;;2.30;2.20;;;24.50;44.70;;;;;;6200836;23;20618;-61
2022/09/13 07:41:18;;;;;;;2.00;1.90;;;24.50;44.70;;;;;;6202195;23;20876;-63
2022/09/13 07:43:44;;;;;;;2.00;1.90;;;24.50;44.70;;;;;;6202004;23;20754;-62
2022/09/13 07:46:12;;;;;;;23.57;4.60;;;24.50;44.70;;;;;;6202608;23;20888;-60
2022/09/13 07:48:40;;;;;;;67.13;13.93;;;24.50;44.70;;;;;;6201486;23;20280;-64
2022/09/13 07:51:17;;;;;;;32.87;8.93;;;24.60;44.70;;;;;;6201042;23;20415;-61
2022/09/13 07:53:45;;;;;;;14.10;6.50;;;24.60;44.70;;;;;;6202269;23;20411;-63
2022/09/13 07:56:21;;;;;;;21.70;7.07;;;24.60;44.70;;;;;;6201942;23;20419;-60
2022/09/13 07:58:48;;;;;;;69.60;12.77;;;24.60;44.80;;;;;;6200992;23;20742;-61
2022/09/13 08:01:25;;;;;;;87.03;16.47;;;24.60;44.80;;;;;;6202791;23;20427;-63
2022/09/13 08:03:56;;;;;;;66.03;15.13;;;24.60;44.80;;;;;;6199296;23;20718;-61
2022/09/13 08:06:24;;;;;;;33.20;12.83;;;24.70;44.90;;;;;;6203332;23;20897;-60
2022/09/13 08:08:50;;;;;;;26.83;8.80;;;24.70;44.90;;;;;;6202963;23;20999;-65
2022/09/13 08:11:35;;;;;;;17.73;8.40;;;24.70;44.80;;;;;;6204587;23;20446;-62
2022/09/13 08:14:02;;;;;;;17.83;7.80;;;24.70;44.80;;;;;;6203523;23;20407;-62
2022/09/13 08:16:29;;;;;;;22.43;6.87;;;24.70;44.90;;;;;;6203861;23;20486;-61
2022/09/13 08:18:57;;;;;;;12.13;5.87;;;24.70;44.90;;;;;;6203260;23;20785;-65
2022/09/13 08:21:23;;;;;;;10.73;5.87;;;24.70;45.00;;;;;;6203602;23;22378;-64
2022/09/13 08:23:52;;;;;;;13.50;5.50;;;24.70;45.10;;;;;;6203160;23;20427;-61
2022/09/13 08:26:18;;;;;;;13.80;4.57;;;24.70;45.00;;;;;;6176773;23;20455;-61
2022/09/13 08:28:44;;;;;;;7.73;4.87;;;24.70;45.00;;;;;;6204342;23;20415;-64
2022/09/13 08:31:14;;;;;;;7.67;4.97;;;24.70;45.00;;;;;;6204172;23;20523;-60
2022/09/13 08:33:42;;;;;;;4.50;4.07;;;24.70;45.10;;;;;;6202749;23;20204;-63
2022/09/13 08:36:08;;;;;;;4.60;3.63;;;24.70;45.10;;;;;;6202742;23;20450;-65
2022/09/13 08:38:33;;;;;;;6.00;3.20;;;24.70;45.10;;;;;;6204693;23;20882;-63
2022/09/13 08:41:04;;;;;;;7.57;4.97;;;24.70;45.10;;;;;;6205331;23;20641;-59
2022/09/13 08:43:44;;;;;;;3.90;3.47;;;24.70;45.10;;;;;;6201543;23;20194;-63
2022/09/13 08:46:14;;;;;;;4.20;3.63;;;24.70;45.10;;;;;;6171909;23;20449;-60
2022/09/13 08:48:43;;;;;;;3.53;3.10;;;24.70;45.20;;;;;;6172412;23;20463;-60
2022/09/13 08:51:35;;;;;;;3.63;3.33;;;24.70;45.20;;;;;;6172024;23;20511;-60
2022/09/13 08:54:02;;;;;;;6.73;3.90;;;24.70;45.10;;;;;;6171816;23;20440;-61
2022/09/13 08:56:40;;;;;;;6.10;3.80;;;24.60;45.10;;;;;;6173274;23;20483;-62
2022/09/13 08:59:45;;;;;;;6.23;3.47;;;24.60;45.00;;;;;;6190460;23;20411;-65
2022/09/13 09:02:43;;;;;;;5.20;3.40;;;24.70;45.10;;;;;;6170609;23;20956;-60
2022/09/13 09:05:16;;;;;;;7.10;4.17;;;24.70;45.20;;;;;;6171798;23;20431;-64
2022/09/13 09:07:52;;;;;;;5.37;4.13;;;24.70;45.10;;;;;;6188437;23;20423;-61
2022/09/13 09:10:24;;;;;;;3.73;3.40;;;24.70;45.10;;;;;;6181550;23;21042;-61
2022/09/13 09:12:57;;;;;;;4.43;3.30;;;24.70;45.20;;;;;;6172716;23;20420;-61
2022/09/13 09:15:34;;;;;;;6.70;3.30;;;24.70;45.10;;;;;;6172058;23;20440;-60
2022/09/13 09:18:09;;;;;;;4.70;2.97;;;24.70;45.10;;;;;;6175664;23;20750;-63
2022/09/13 09:20:59;;;;;;;4.70;3.07;;;24.70;45.10;;;;;;6174297;23;20435;-64
2022/09/13 09:23:37;;;;;;;4.80;3.37;;;24.70;45.00;;;;;;6183752;23;20431;-59
2022/09/13 09:26:30;;;;;;;4.77;3.40;;;24.70;45.00;;;;;;6191336;23;20508;-61
2022/09/13 09:28:58;;;;;;;2.87;2.67;;;24.70;45.00;;;;;;6195047;23;20408;-60
2022/09/13 09:31:32;;;;;;;3.70;3.33;;;24.70;45.10;;;;;;6185862;23;20436;-60
2022/09/13 09:34:30;;;;;;;4.57;2.77;;;24.70;45.00;;;;;;6170699;23;20733;-62
2022/09/13 09:37:10;;;;;;;3.33;2.80;;;24.70;45.10;;;;;;6191510;23;20447;-61
2022/09/13 09:39:38;;;;;;;7.00;3.33;;;24.70;45.10;;;;;;6199043;23;20430;-61
2022/09/13 09:42:16;;;;;;;3.20;2.87;;;24.70;45.10;;;;;;6200213;23;20958;-60
2022/09/13 09:44:44;;;;;;;5.30;3.63;;;24.70;45.00;;;;;;6191566;23;20972;-59
2022/09/13 09:47:19;;;;;;;2.80;2.60;;;24.70;45.00;;;;;;6190204;23;20424;-64
2022/09/13 09:50:09;;;;;;;3.73;2.93;;;24.70;45.00;;;;;;6201954;23;20426;-61
2022/09/13 09:52:56;;;;;;;3.13;2.93;;;24.70;45.00;;;;;;6194928;23;20466;-65
2022/09/13 09:55:31;;;;;;;2.83;2.63;;;24.70;45.00;;;;;;6184707;23;20415;-62
2022/09/13 09:58:03;;;;;;;3.27;2.73;;;24.70;45.10;;;;;;6199944;23;20453;-61
2022/09/13 10:00:33;;;;;;;3.50;2.60;;;24.70;45.00;;;;;;6188826;23;20420;-64
2022/09/13 10:03:08;;;;;;;2.70;2.50;;;24.70;45.10;;;;;;6172113;23;20498;-61
2022/09/13 10:05:34;;;;;;;2.73;2.53;;;24.70;45.00;;;;;;6197531;23;20925;-60
2022/09/13 10:08:04;;;;;;;3.03;2.83;;;24.70;45.00;;;;;;6203596;23;20407;-63
2022/09/13 10:10:42;;;;;;;4.43;2.60;;;24.70;45.00;;;;;;6202488;23;20427;-60
2022/09/13 10:13:22;;;;;;;3.80;3.50;;;24.70;45.00;;;;;;6175852;23;20756;-61
2022/09/13 10:16:00;;;;;;;3.00;2.80;;;24.70;45.00;;;;;;6197438;23;20729;-60
2022/09/13 10:18:30;;;;;;;2.67;2.50;;;24.70;45.00;;;;;;6207766;23;20506;-64
2022/09/13 10:21:03;;;;;;;2.77;2.57;;;24.70;45.00;;;;;;6205409;23;22475;-60
2022/09/13 10:23:31;;;;;;;2.80;2.60;;;24.70;45.00;;;;;;6206080;23;20482;-60
2022/09/13 10:26:10;;;;;;;2.87;2.43;;;24.70;45.00;;;;;;6199999;23;20432;-63
2022/09/13 10:28:46;;;;;;;2.80;2.60;;;24.70;45.00;;;;;;6172142;23;20499;-60
2022/09/13 10:31:17;;;;;;;3.07;2.87;;;24.70;45.00;;;;;;6200372;23;20427;-60
2022/09/13 10:33:49;;;;;;;2.90;2.30;;;24.70;45.00;;;;;;6203503;23;20720;-63
2022/09/13 10:36:23;;;;;;;3.13;2.93;;;24.70;45.10;;;;;;6204473;23;20510;-62
2022/09/13 10:39:00;;;;;;;3.40;3.10;;;24.70;45.00;;;;;;6202519;23;20426;-66
2022/09/13 10:41:29;;;;;;;3.07;2.87;;;24.70;45.00;;;;;;6202979;23;20419;-64
2022/09/13 10:43:59;;;;;;;2.90;2.70;;;24.70;45.00;;;;;;6203987;23;20412;-61
2022/09/13 10:46:31;;;;;;;2.77;2.57;;;24.70;45.00;;;;;;6201656;23;20424;-61
2022/09/13 10:48:58;;;;;;;2.47;2.37;;;24.70;45.00;;;;;;6203061;23;20458;-61
2022/09/13 10:51:26;;;;;;;2.47;2.30;;;24.70;44.90;;;;;;6201758;23;20408;-60
2022/09/13 10:54:21;;;;;;;4.60;2.80;;;24.70;45.00;;;;;;6201285;23;20511;-60
2022/09/13 10:56:52;;;;;;;3.00;2.80;;;24.70;44.90;;;;;;6190924;23;20408;-60
2022/09/13 10:59:27;;;;;;;2.63;2.43;;;24.70;45.00;;;;;;6195887;23;20715;-65
2022/09/13 11:02:14;;;;;;;2.73;2.53;;;24.70;45.00;;;;;;6202751;23;20887;-62
2022/09/13 11:05:00;;;;;;;2.93;2.73;;;24.70;45.00;;;;;;6195682;23;20431;-63
2022/09/13 11:08:07;;;;;;;3.00;2.80;;;24.70;45.00;;;;;;6201315;23;20423;-62
2022/09/13 11:11:05;;;;;;;3.00;2.80;;;24.70;45.00;;;;;;6127316;23;20747;-60
2022/09/13 11:13:40;;;;;;;3.07;2.87;;;24.70;45.00;;;;;;6196532;23;20415;-63
2022/09/13 11:16:45;;;;;;;3.10;2.90;;;24.70;45.00;;;;;;6172945;23;20436;-61
2022/09/13 11:19:41;;;;;;;2.63;2.50;;;24.70;45.00;;;;;;6172373;23;20412;-65
2022/09/13 11:22:06;;;;;;;2.80;2.60;;;24.70;45.00;;;;;;6172732;23;20432;-65
2022/09/13 11:24:45;;;;;;;2.57;2.47;;;24.60;45.00;;;;;;6175953;23;20436;-63
2022/09/13 11:27:24;;;;;;;3.30;3.10;;;24.60;44.90;;;;;;6185491;23;20256;-61
2022/09/13 11:30:11;;;;;;;2.83;2.63;;;24.60;45.00;;;;;;6202007;23;20431;-61
2022/09/13 11:33:14;;;;;;;2.67;2.47;;;24.60;44.90;;;;;;6177068;23;20416;-63
2022/09/13 11:36:05;;;;;;;3.60;3.40;;;24.60;45.00;;;;;;6202412;23;20407;-63
2022/09/13 11:38:53;;;;;;;3.47;3.17;;;24.60;44.90;;;;;;6197043;23;20411;-63
2022/09/13 11:41:40;;;;;;;2.53;2.43;;;24.60;44.90;;;;;;6197291;23;20415;-63
2022/09/13 11:44:33;;;;;;;2.83;2.63;;;24.60;44.90;;;;;;6178010;23;20487;-62
2022/09/13 11:47:04;;;;;;;2.60;2.50;;;24.60;45.00;;;;;;6175170;23;20459;-63
2022/09/13 11:49:45;;;;;;;2.90;2.70;;;24.60;45.10;;;;;;6199740;23;20958;-64
2022/09/13 11:52:33;;;;;;;2.70;2.50;;;24.60;45.00;;;;;;6196941;23;20425;-61
2022/09/13 11:55:20;;;;;;;3.13;2.93;;;24.60;44.90;;;;;;6117739;23;20431;-61
2022/09/13 11:57:52;;;;;;;4.57;3.20;;;24.60;45.00;;;;;;6172925;23;20722;-63
2022/09/13 12:00:24;;;;;;;3.00;2.70;;;24.60;45.00;;;;;;6176131;23;20470;-61
2022/09/13 12:03:23;;;;;;;2.67;2.47;;;24.60;45.00;;;;;;6183769;23;20485;-66
2022/09/13 12:06:10;;;;;;;3.20;3.00;;;24.60;45.00;;;;;;6191536;23;20535;-64
2022/09/13 12:08:43;;;;;;;3.03;2.73;;;24.60;45.00;;;;;;6196835;23;20411;-62
2022/09/13 12:11:21;;;;;;;2.60;2.40;;;24.60;45.10;;;;;;6203246;23;20515;-63
2022/09/13 12:13:56;;;;;;;2.50;2.40;;;24.60;45.10;;;;;;6196025;23;20466;-61
2022/09/13 12:16:29;;;;;;;3.50;3.20;;;24.60;45.10;;;;;;6200399;23;20934;-61
2022/09/13 12:19:00;;;;;;;3.07;2.87;;;24.60;45.10;;;;;;6204650;23;20485;-62
2022/09/13 12:21:31;;;;;;;2.87;2.67;;;24.60;45.10;;;;;;6202489;23;20481;-59
2022/09/13 12:23:59;;;;;;;3.07;2.97;;;24.60;45.10;;;;;;6198772;23;20491;-60
2022/09/13 12:26:44;;;;;;;3.10;2.90;;;24.60;45.10;;;;;;6197677;23;20461;-62
2022/09/13 12:29:38;;;;;;;2.77;2.67;;;24.60;45.10;;;;;;6195409;23;20439;-61
2022/09/13 12:32:07;;;;;;;3.43;3.23;;;24.60;45.10;;;;;;6182505;23;20494;-65
2022/09/13 12:34:43;;;;;;;2.60;2.40;;;24.60;45.10;;;;;;6203215;23;20446;-59
2022/09/13 12:37:15;;;;;;;3.10;2.90;;;24.60;45.10;;;;;;6200281;23;20424;-64
2022/09/13 12:39:44;;;;;;;2.90;2.70;;;24.60;45.10;;;;;;6204092;23;20415;-62
2022/09/13 12:42:48;;;;;;;2.53;2.43;;;24.60;45.10;;;;;;6202884;23;20442;-61
2022/09/13 12:45:32;;;;;;;2.80;2.60;;;24.60;45.20;;;;;;6166542;23;20433;-61
2022/09/13 12:48:16;;;;;;;2.90;2.80;;;24.60;45.10;;;;;;6200284;23;20446;-62
2022/09/13 12:50:58;;;;;;;3.30;2.53;;;24.60;45.10;;;;;;6194325;23;20520;-61
2022/09/13 12:53:35;;;;;;;2.80;2.70;;;24.60;45.10;;;;;;6190995;23;21357;-61
2022/09/13 12:56:35;;;;;;;3.30;2.77;;;24.60;45.10;;;;;;6200633;23;21106;-63
2022/09/13 12:59:20;;;;;;;3.00;2.80;;;24.60;45.10;;;;;;6173394;23;20417;-64
2022/09/13 13:01:49;;;;;;;2.83;2.67;;;24.60;45.10;;;;;;6192281;23;20426;-62
2022/09/13 13:04:32;;;;;;;2.70;2.50;;;24.70;45.20;;;;;;6170789;23;20451;-62
2022/09/13 13:07:01;;;;;;;2.60;2.40;;;24.60;45.10;;;;;;6169140;23;20500;-61
2022/09/13 13:09:43;;;;;;;3.10;2.90;;;24.60;45.10;;;;;;6181198;23;20503;-61
2022/09/13 13:12:30;;;;;;;2.60;2.50;;;24.70;45.20;;;;;;6194566;23;20459;-61
2022/09/13 13:14:56;;;;;;;2.97;2.77;;;24.60;45.10;;;;;;6170581;23;20938;-65
2022/09/13 13:17:41;;;;;;;2.60;2.50;;;24.60;45.20;;;;;;6188770;23;20883;-65
2022/09/13 13:20:44;;;;;;;3.20;3.00;;;24.60;45.10;;;;;;6192346;23;21280;-62